map of LKKB home
LKKB - Airport
Location
City:  Kbely, Prague, Czech Republic
Near (Alt.):Prague 19
Name:Prague-Kbely Airport
ICAO:LKKB

Details
Type:Airport (Aerodrome, Airfield)
Use:Military
Latitude:5007'17"N (50.121367)
Longitude:1432'37"E (14.543642)
Datum:WGS 1984
Elevation:939 ft (286 m)
Variation:4.24E (WMM2015v2 magnetic declination)
0.16 annual change
Runways:1
Longest:6562 × 148 ft (2000 × 45 m), paved

Time
Time Zone:UTC+1 (DST+2)
Local Time:

Weather
METAR:LKKB 041400Z 17003KT 9999 FEW027 BKN036 01/M03 Q1029 NOSIG
TAF:LKKB 041100Z 0412/0512 24008KT 9999 SCT035
BECMG 0412/0414 CAVOK
BECMG 0415/0417 17004KT
TEMPO 0415/0420 SCT030
BECMG 0502/0504 VRB02KT
TEMPO 0502/0509 5000 BR

Related Locations
Nearby:
Farthest:CHT: 11758 mi / 18923 km
Waitangi [Tuuta], CIT, NZ

Find:

   beyond  
but within

Other Information
Maps:
NOTAMs:
Links:
Sources:

  
  • flag of Czech Republic
  • flag of Prague
  • flag of Kbely
  

Sectional Chart

Flight Planning
at skyvector.com

Satellite Image

Google Maps Satellite view

 

Copyright © 2004-2019 Karl L. Swartz. All rights reserved.
The Great Circle Mapper name and logo are trademarks of the Great Circle Mapper.
All other trademarks mentioned herein belong to their respective owners.
Please see credits for attibutions and further copyright information.

  Follow gcmap on Facebook Follow gcmap on Twitter GCmap on LinkedIn

hCard Microformat

Geo Microformat